Time,TemperatureF,DewpointF,PressureIn,WindDirection,WindDirectionDegrees,WindSpeedMPH,WindSpeedGustMPH,Humidity,HourlyPrecipIn,Conditions,Clouds,dailyrainin,SoftwareType,DateUTC
2013-01-08 00:00:00,38.9,33.6,30.40,NE,39,2.0,5.0,81,0.00,,---,0.00,VWS V14.00,2013-01-08 05:00:00,
2013-01-08 00:01:00,38.9,33.6,30.39,NE,39,1.0,5.0,81,0.00,,---,0.00,VWS V14.00,2013-01-08 05:01:00,
2013-01-08 00:06:00,38.7,33.4,30.39,NE,41,1.0,6.0,81,0.00,,---,0.00,VWS V14.00,2013-01-08 05:06:00,
2013-01-08 00:11:00,38.7,33.4,30.39,NNE,29,1.0,6.0,81,0.00,,---,0.00,VWS V14.00,2013-01-08 05:11:00,
2013-01-08 00:16:00,38.6,33.3,30.39,NE,47,0.0,6.0,81,0.00,,---,0.00,VWS V14.00,2013-01-08 05:16:00,
2013-01-08 00:21:00,38.6,33.3,30.39,NE,39,1.0,6.0,81,0.00,,---,0.00,VWS V14.00,2013-01-08 05:21:00,
2013-01-08 00:27:00,38.4,33.1,30.39,NE,39,2.0,6.0,81,0.00,,---,0.00,VWS V14.00,2013-01-08 05:27:00,
2013-01-08 00:32:00,38.1,33.1,30.39,NE,35,2.0,3.0,82,0.00,,---,0.00,VWS V14.00,2013-01-08 05:32:00,
2013-01-08 00:37:00,37.8,32.8,30.39,NE,35,2.0,3.0,82,0.00,,---,0.00,VWS V14.00,2013-01-08 05:37:00,
2013-01-08 00:42:00,37.4,32.7,30.40,NE,35,0.0,3.0,83,0.00,,---,0.00,VWS V14.00,2013-01-08 05:42:00,
2013-01-08 00:47:00,37.1,32.7,30.40,NE,35,1.0,3.0,84,0.00,,---,0.00,VWS V14.00,2013-01-08 05:47:00,
2013-01-08 00:52:00,36.8,32.4,30.39,NNE,28,3.0,4.0,84,0.00,,---,0.00,VWS V14.00,2013-01-08 05:52:00,
2013-01-08 00:57:00,37.0,32.6,30.39,NNE,31,3.0,7.0,84,0.00,,---,0.00,VWS V14.00,2013-01-08 05:57:00,
2013-01-08 01:02:00,37.1,32.7,30.39,NNE,23,3.0,4.0,84,0.00,,---,0.00,VWS V14.00,2013-01-08 06:02:00,
2013-01-08 01:07:00,37.0,32.6,30.39,NE,34,2.0,5.0,84,0.00,,---,0.00,VWS V14.00,2013-01-08 06:07:00,
2013-01-08 01:12:00,37.1,32.7,30.39,NNE,24,5.0,6.0,84,0.00,,---,0.00,VWS V14.00,2013-01-08 06:12:00,
2013-01-08 01:17:00,37.4,33.0,30.39,NE,39,3.0,8.0,84,0.00,,---,0.00,VWS V14.00,2013-01-08 06:17:00,
2013-01-08 01:22:00,37.7,33.0,30.39,NNE,29,3.0,8.0,83,0.00,,---,0.00,VWS V14.00,2013-01-08 06:22:00,
2013-01-08 01:27:00,37.8,33.1,30.39,NNE,25,3.0,8.0,83,0.00,,---,0.00,VWS V14.00,2013-01-08 06:27:00,
2013-01-08 01:32:00,37.6,32.9,30.39,NNE,17,3.0,4.0,83,0.00,,---,0.00,VWS V14.00,2013-01-08 06:32:00,
2013-01-08 01:37:00,37.4,32.7,30.39,NNE,12,2.0,4.0,83,0.00,,---,0.00,VWS V14.00,2013-01-08 06:37:00,
2013-01-08 01:42:00,37.1,32.4,30.38,NNE,22,2.0,4.0,83,0.00,,---,0.00,VWS V14.00,2013-01-08 06:42:00,
2013-01-08 01:47:00,36.9,32.5,30.38,NNE,22,0.0,4.0,84,0.00,,---,0.00,VWS V14.00,2013-01-08 06:47:00,
2013-01-08 01:52:00,36.7,32.3,30.39,NNE,22,1.0,4.0,84,0.00,,---,0.00,VWS V14.00,2013-01-08 06:52:00,
2013-01-08 01:57:00,36.5,32.1,30.38,NNE,22,1.0,4.0,84,0.00,,---,0.00,VWS V14.00,2013-01-08 06:57:00,
2013-01-08 02:02:00,36.2,32.1,30.39,NNE,22,1.0,3.0,85,0.00,,---,0.00,VWS V14.00,2013-01-08 07:02:00,
2013-01-08 02:07:00,36.0,31.9,30.38,NNE,22,1.0,3.0,85,0.00,,---,0.00,VWS V14.00,2013-01-08 07:07:00,
2013-01-08 02:12:00,35.9,32.1,30.38,NNE,22,2.0,3.0,86,0.00,,---,0.00,VWS V14.00,2013-01-08 07:12:00,
2013-01-08 02:17:00,35.8,32.0,30.38,NNE,25,2.0,3.0,86,0.00,,---,0.00,VWS V14.00,2013-01-08 07:17:00,
2013-01-08 02:22:00,35.7,31.9,30.38,NNE,25,0.0,3.0,86,0.00,,---,0.00,VWS V14.00,2013-01-08 07:22:00,
2013-01-08 02:27:00,35.6,31.8,30.38,NNE,25,0.0,3.0,86,0.00,,---,0.00,VWS V14.00,2013-01-08 07:27:00,
2013-01-08 02:32:00,35.4,31.9,30.38,NNE,25,1.0,1.0,87,0.00,,---,0.00,VWS V14.00,2013-01-08 07:32:00,
2013-01-08 02:37:00,35.2,31.7,30.37,NNE,25,1.0,2.0,87,0.00,,---,0.00,VWS V14.00,2013-01-08 07:37:00,
2013-01-08 02:42:00,35.1,31.6,30.37,NNE,25,1.0,2.0,87,0.00,,---,0.00,VWS V14.00,2013-01-08 07:42:00,
2013-01-08 02:47:00,34.8,31.6,30.37,NNE,25,2.0,2.0,88,0.00,,---,0.00,VWS V14.00,2013-01-08 07:47:00,
2013-01-08 02:52:00,34.6,31.4,30.37,NNE,20,2.0,2.0,88,0.00,,---,0.00,VWS V14.00,2013-01-08 07:52:00,
2013-01-08 02:57:00,34.4,31.5,30.37,NNE,19,3.0,3.0,89,0.00,,---,0.00,VWS V14.00,2013-01-08 07:57:00,
2013-01-08 03:02:00,34.3,31.4,30.37,NNE,16,1.0,3.0,89,0.00,,---,0.00,VWS V14.00,2013-01-08 08:02:00,
2013-01-08 03:07:00,34.1,31.2,30.36,NNE,16,2.0,3.0,89,0.00,,---,0.00,VWS V14.00,2013-01-08 08:07:00,
2013-01-08 03:12:00,33.8,30.9,30.36,NNE,14,2.0,3.0,89,0.00,,---,0.00,VWS V14.00,2013-01-08 08:12:00,
2013-01-08 03:17:00,33.8,31.2,30.36,NNE,14,2.0,3.0,90,0.00,,---,0.00,VWS V14.00,2013-01-08 08:17:00,
2013-01-08 03:22:00,33.8,31.2,30.37,NNE,14,2.0,3.0,90,0.00,,---,0.00,VWS V14.00,2013-01-08 08:22:00,
2013-01-08 03:27:00,33.8,31.2,30.36,NNE,14,1.0,3.0,90,0.00,,---,0.00,VWS V14.00,2013-01-08 08:27:00,
2013-01-08 03:32:00,33.8,31.2,30.36,NNE,14,0.0,1.0,90,0.00,,---,0.00,VWS V14.00,2013-01-08 08:32:00,
2013-01-08 03:37:00,33.8,31.2,30.36,NNE,14,3.0,3.0,90,0.00,,---,0.00,VWS V14.00,2013-01-08 08:37:00,
2013-01-08 03:42:00,33.9,31.3,30.36,NNE,14,2.0,3.0,90,0.00,,---,0.00,VWS V14.00,2013-01-08 08:42:00,
2013-01-08 03:47:00,33.8,31.5,30.36,NNE,13,1.0,3.0,91,0.00,,---,0.00,VWS V14.00,2013-01-08 08:47:00,
2013-01-08 03:52:00,33.6,31.0,30.36,NNE,13,0.0,3.0,90,0.00,,---,0.00,VWS V14.00,2013-01-08 08:52:00,
2013-01-08 03:57:00,33.5,31.2,30.36,NNE,13,1.0,3.0,91,0.00,,---,0.00,VWS V14.00,2013-01-08 08:57:00,
2013-01-08 04:02:00,33.6,31.3,30.36,NNE,13,1.0,3.0,91,0.00,,---,0.00,VWS V14.00,2013-01-08 09:02:00,
2013-01-08 04:07:00,33.5,31.2,30.36,North,352,2.0,4.0,91,0.00,,---,0.00,VWS V14.00,2013-01-08 09:07:00,
2013-01-08 04:12:00,33.5,31.2,30.36,North,352,0.0,4.0,91,0.00,,---,0.00,VWS V14.00,2013-01-08 09:12:00,
2013-01-08 04:17:00,33.4,31.1,30.36,North,352,0.0,4.0,91,0.00,,---,0.00,VWS V14.00,2013-01-08 09:17:00,
2013-01-08 04:22:00,33.3,31.0,30.36,North,352,1.0,4.0,91,0.00,,---,0.00,VWS V14.00,2013-01-08 09:22:00,
2013-01-08 04:27:00,33.3,31.2,30.36,North,349,1.0,4.0,92,0.00,,---,0.00,VWS V14.00,2013-01-08 09:27:00,
2013-01-08 04:32:00,33.3,31.2,30.36,North,349,0.0,2.0,92,0.00,,---,0.00,VWS V14.00,2013-01-08 09:32:00,
2013-01-08 04:37:00,33.3,31.2,30.36,North,349,1.0,2.0,92,0.00,,---,0.00,VWS V14.00,2013-01-08 09:37:00,
2013-01-08 04:42:00,33.3,31.2,30.36,North,349,1.0,2.0,92,0.00,,---,0.00,VWS V14.00,2013-01-08 09:42:00,
2013-01-08 04:47:00,33.3,31.2,30.36,North,349,1.0,2.0,92,0.00,,---,0.00,VWS V14.00,2013-01-08 09:47:00,
2013-01-08 04:52:00,33.3,31.2,30.36,North,349,0.0,2.0,92,0.00,,---,0.00,VWS V14.00,2013-01-08 09:52:00,
2013-01-08 04:57:00,33.3,31.2,30.36,North,349,2.0,2.0,92,0.00,,---,0.00,VWS V14.00,2013-01-08 09:57:00,
2013-01-08 05:02:00,33.3,31.2,30.36,North,349,1.0,2.0,92,0.00,,---,0.00,VWS V14.00,2013-01-08 10:02:00,
2013-01-08 05:07:00,33.3,31.2,30.36,North,349,1.0,2.0,92,0.00,,---,0.00,VWS V14.00,2013-01-08 10:07:00,
2013-01-08 05:12:00,33.4,31.3,30.36,North,349,2.0,3.0,92,0.00,,---,0.00,VWS V14.00,2013-01-08 10:12:00,
2013-01-08 05:17:00,33.4,31.3,30.36,North,349,2.0,4.0,92,0.00,,---,0.00,VWS V14.00,2013-01-08 10:17:00,
2013-01-08 05:22:00,33.6,31.5,30.37,North,349,2.0,4.0,92,0.00,,---,0.00,VWS V14.00,2013-01-08 10:22:00,
2013-01-08 05:27:00,33.7,31.4,30.37,North,349,3.0,4.0,91,0.00,,---,0.00,VWS V14.00,2013-01-08 10:27:00,
2013-01-08 05:32:00,33.8,31.5,30.37,North,359,3.0,4.0,91,0.00,,---,0.00,VWS V14.00,2013-01-08 10:32:00,
2013-01-08 05:37:00,33.9,31.6,30.37,North,4,4.0,5.0,91,0.00,,---,0.00,VWS V14.00,2013-01-08 10:37:00,
2013-01-08 05:42:00,34.1,31.8,30.37,North,349,3.0,5.0,91,0.00,,---,0.00,VWS V14.00,2013-01-08 10:42:00,
2013-01-08 05:47:00,34.1,31.5,30.37,North,350,2.0,5.0,90,0.00,,---,0.00,VWS V14.00,2013-01-08 10:47:00,
2013-01-08 05:52:00,34.1,31.5,30.37,North,350,1.0,5.0,90,0.00,,---,0.00,VWS V14.00,2013-01-08 10:52:00,
2013-01-08 05:57:00,34.1,31.5,30.37,North,350,1.0,5.0,90,0.00,,---,0.00,VWS V14.00,2013-01-08 10:57:00,
2013-01-08 06:02:00,34.1,31.5,30.37,North,351,3.0,3.0,90,0.00,,---,0.00,VWS V14.00,2013-01-08 11:02:00,
2013-01-08 06:07:00,34.2,31.6,30.37,North,2,5.0,5.0,90,0.00,,---,0.00,VWS V14.00,2013-01-08 11:07:00,
2013-01-08 06:12:00,34.3,31.7,30.37,North,352,4.0,5.0,90,0.00,,---,0.00,VWS V14.00,2013-01-08 11:12:00,
2013-01-08 06:17:00,34.3,31.7,30.37,North,351,4.0,5.0,90,0.00,,---,0.00,VWS V14.00,2013-01-08 11:17:00,
2013-01-08 06:22:00,34.4,31.8,30.38,North,350,2.0,5.0,90,0.00,,---,0.00,VWS V14.00,2013-01-08 11:22:00,
2013-01-08 06:27:00,34.3,31.7,30.38,North,5,2.0,5.0,90,0.00,,---,0.00,VWS V14.00,2013-01-08 11:27:00,
2013-01-08 06:32:00,34.3,31.7,30.38,North,357,2.0,6.0,90,0.00,,---,0.00,VWS V14.00,2013-01-08 11:32:00,
2013-01-08 06:37:00,34.3,31.7,30.38,NNW,346,3.0,6.0,90,0.00,,---,0.00,VWS V14.00,2013-01-08 11:37:00,
2013-01-08 06:42:00,34.3,31.7,30.38,NNW,339,2.0,6.0,90,0.00,,---,0.00,VWS V14.00,2013-01-08 11:42:00,
2013-01-08 06:47:00,34.2,31.6,30.39,NNW,339,2.0,6.0,90,0.00,,---,0.00,VWS V14.00,2013-01-08 11:47:00,
2013-01-08 06:52:00,34.1,31.5,30.39,NNW,335,4.0,6.0,90,0.00,,---,0.00,VWS V14.00,2013-01-08 11:52:00,
2013-01-08 06:57:00,34.1,31.8,30.39,WNW,303,2.0,6.0,91,0.00,,---,0.00,VWS V14.00,2013-01-08 11:57:00,
2013-01-08 07:02:00,34.2,31.9,30.39,NW,320,3.0,4.0,91,0.00,,---,0.00,VWS V14.00,2013-01-08 12:02:00,
2013-01-08 07:07:00,34.1,31.8,30.40,West,279,4.0,5.0,91,0.00,,---,0.00,VWS V14.00,2013-01-08 12:07:00,
2013-01-08 07:12:00,33.9,31.6,30.41,WSW,247,4.0,6.0,91,0.00,,---,0.00,VWS V14.00,2013-01-08 12:12:00,
2013-01-08 07:17:00,33.6,31.3,30.41,West,271,1.0,6.0,91,0.00,,---,0.00,VWS V14.00,2013-01-08 12:17:00,
2013-01-08 07:22:00,33.7,31.6,30.41,WNW,290,2.0,6.0,92,0.00,,---,0.00,VWS V14.00,2013-01-08 12:22:00,
2013-01-08 07:27:00,34.0,31.9,30.41,NNW,347,5.0,6.0,92,0.00,,---,0.00,VWS V14.00,2013-01-08 12:27:00,
2013-01-08 07:32:00,34.1,31.8,30.41,North,2,4.0,5.0,91,0.00,,---,0.00,VWS V14.00,2013-01-08 12:32:00,
2013-01-08 07:37:00,34.0,31.6,30.41,NNW,339,2.0,5.0,91,0.00,,---,0.00,VWS V14.00,2013-01-08 12:37:00,
2013-01-08 07:42:00,34.0,31.6,30.41,NNW,345,3.0,5.0,91,0.00,,---,0.00,VWS V14.00,2013-01-08 12:42:00,
2013-01-08 07:47:00,34.2,32.1,30.41,NNW,345,2.0,5.0,92,0.00,,---,0.00,VWS V14.00,2013-01-08 12:47:00,
2013-01-08 07:52:00,34.3,32.0,30.41,NNW,335,3.0,5.0,91,0.00,,---,0.00,VWS V14.00,2013-01-08 12:52:00,
2013-01-08 07:57:00,34.4,32.3,30.42,NNW,335,1.0,5.0,92,0.00,,---,0.00,VWS V14.00,2013-01-08 12:57:00,
2013-01-08 08:02:00,34.8,32.7,30.42,NNW,343,3.0,4.0,92,0.00,,---,0.00,VWS V14.00,2013-01-08 13:02:00,
2013-01-08 08:07:00,35.2,33.1,30.42,NNW,343,3.0,4.0,92,0.00,,---,0.00,VWS V14.00,2013-01-08 13:07:00,
2013-01-08 08:12:00,35.5,33.1,30.42,North,352,4.0,5.0,91,0.00,,---,0.00,VWS V14.00,2013-01-08 13:12:00,
2013-01-08 08:17:00,36.0,33.6,30.42,North,349,4.0,6.0,91,0.00,,---,0.00,VWS V14.00,2013-01-08 13:17:00,
2013-01-08 08:22:00,36.5,34.1,30.42,NNW,342,2.0,6.0,91,0.00,,---,0.00,VWS V14.00,2013-01-08 13:22:00,
2013-01-08 08:27:00,37.0,34.3,30.43,North,351,4.0,6.0,90,0.00,,---,0.00,VWS V14.00,2013-01-08 13:27:00,
2013-01-08 08:32:00,37.3,34.6,30.43,North,356,1.0,5.0,90,0.00,,---,0.00,VWS V14.00,2013-01-08 13:32:00,
2013-01-08 08:37:00,37.7,35.0,30.43,NNW,348,3.0,5.0,90,0.00,,---,0.00,VWS V14.00,2013-01-08 13:37:00,
2013-01-08 08:42:00,37.8,34.9,30.43,NNW,347,5.0,5.0,89,0.00,,---,0.00,VWS V14.00,2013-01-08 13:42:00,
2013-01-08 08:47:00,38.0,35.0,30.43,NNW,346,3.0,5.0,89,0.00,,---,0.00,VWS V14.00,2013-01-08 13:47:00,
2013-01-08 08:52:00,38.2,35.2,30.43,North,0,3.0,5.0,89,0.00,,---,0.00,VWS V14.00,2013-01-08 13:52:00,
2013-01-08 08:57:00,38.4,35.5,30.43,NNW,345,4.0,6.0,89,0.00,,---,0.00,VWS V14.00,2013-01-08 13:57:00,
2013-01-08 09:02:00,38.7,35.7,30.43,NNW,346,2.0,4.0,89,0.00,,---,0.00,VWS V14.00,2013-01-08 14:02:00,
2013-01-08 09:07:00,38.9,35.9,30.43,North,354,4.0,6.0,89,0.00,,---,0.00,VWS V14.00,2013-01-08 14:07:00,
2013-01-08 09:12:00,39.1,36.1,30.44,North,353,3.0,6.0,89,0.00,,---,0.00,VWS V14.00,2013-01-08 14:12:00,
2013-01-08 09:17:00,39.4,36.4,30.44,North,353,3.0,6.0,89,0.00,,---,0.00,VWS V14.00,2013-01-08 14:17:00,
2013-01-08 09:22:00,39.6,36.6,30.44,North,353,1.0,6.0,89,0.00,,---,0.00,VWS V14.00,2013-01-08 14:22:00,
2013-01-08 09:27:00,39.8,36.8,30.44,North,354,0.0,6.0,89,0.00,,---,0.00,VWS V14.00,2013-01-08 14:27:00,
2013-01-08 09:32:00,40.1,37.1,30.44,North,354,0.0,3.0,89,0.00,,---,0.00,VWS V14.00,2013-01-08 14:32:00,
2013-01-08 09:37:00,40.3,37.3,30.44,North,354,1.0,3.0,89,0.00,,---,0.00,VWS V14.00,2013-01-08 14:37:00,
2013-01-08 09:42:00,40.5,37.5,30.44,North,1,3.0,4.0,89,0.00,,---,0.00,VWS V14.00,2013-01-08 14:42:00,
2013-01-08 09:47:00,40.8,37.8,30.44,North,0,1.0,4.0,89,0.00,,---,0.00,VWS V14.00,2013-01-08 14:47:00,
2013-01-08 09:52:00,41.0,38.0,30.44,North,1,3.0,4.0,89,0.00,,---,0.00,VWS V14.00,2013-01-08 14:52:00,
2013-01-08 09:57:00,41.4,38.4,30.44,North,350,2.0,5.0,89,0.00,,---,0.00,VWS V14.00,2013-01-08 14:57:00,
2013-01-08 10:02:00,41.7,38.7,30.44,North,356,3.0,4.0,89,0.00,,---,0.00,VWS V14.00,2013-01-08 15:02:00,
2013-01-08 10:07:00,42.0,38.7,30.43,North,7,2.0,4.0,88,0.00,,---,0.00,VWS V14.00,2013-01-08 15:07:00,
2013-01-08 10:12:00,42.4,39.1,30.43,North,8,3.0,4.0,88,0.00,,---,0.00,VWS V14.00,2013-01-08 15:12:00,
2013-01-08 10:17:00,42.9,39.6,30.44,North,6,2.0,5.0,88,0.00,,---,0.00,VWS V14.00,2013-01-08 15:17:00,
2013-01-08 10:22:00,43.3,40.0,30.43,North,359,4.0,5.0,88,0.00,,---,0.00,VWS V14.00,2013-01-08 15:22:00,
2013-01-08 10:27:00,43.7,40.1,30.44,North,358,4.0,5.0,87,0.00,,---,0.00,VWS V14.00,2013-01-08 15:27:00,
2013-01-08 10:32:00,43.9,40.3,30.44,North,359,1.0,3.0,87,0.00,,---,0.00,VWS V14.00,2013-01-08 15:32:00,
2013-01-08 10:37:00,44.2,40.6,30.43,North,8,2.0,3.0,87,0.00,,---,0.00,VWS V14.00,2013-01-08 15:37:00,
2013-01-08 10:42:00,44.5,40.9,30.43,North,8,2.0,4.0,87,0.00,,---,0.00,VWS V14.00,2013-01-08 15:42:00,
2013-01-08 10:47:00,44.9,41.3,30.43,North,8,2.0,4.0,87,0.00,,---,0.00,VWS V14.00,2013-01-08 15:47:00,
2013-01-08 10:52:00,45.1,41.5,30.43,North,6,2.0,4.0,87,0.00,,---,0.00,VWS V14.00,2013-01-08 15:52:00,
2013-01-08 10:57:00,45.4,41.8,30.43,North,6,0.0,4.0,87,0.00,,---,0.00,VWS V14.00,2013-01-08 15:57:00,
2013-01-08 11:02:00,45.7,42.1,30.42,North,6,0.0,1.0,87,0.00,,---,0.00,VWS V14.00,2013-01-08 16:02:00,
2013-01-08 11:07:00,46.0,42.0,30.42,North,8,1.0,2.0,86,0.00,,---,0.00,VWS V14.00,2013-01-08 16:07:00,
2013-01-08 11:12:00,46.5,42.8,30.42,North,8,1.0,2.0,87,0.00,,---,0.00,VWS V14.00,2013-01-08 16:12:00,
2013-01-08 11:17:00,47.0,43.0,30.41,North,10,1.0,3.0,86,0.00,,---,0.00,VWS V14.00,2013-01-08 16:17:00,
2013-01-08 11:22:00,47.5,43.5,30.40,NNE,27,1.0,3.0,86,0.00,,---,0.00,VWS V14.00,2013-01-08 16:22:00,
2013-01-08 11:27:00,48.1,44.1,30.40,NE,40,0.0,3.0,86,0.00,,---,0.00,VWS V14.00,2013-01-08 16:27:00,
2013-01-08 11:32:00,48.6,44.6,30.40,NE,39,2.0,3.0,86,0.00,,---,0.00,VWS V14.00,2013-01-08 16:32:00,
2013-01-08 11:37:00,49.3,45.0,30.40,NNE,33,1.0,3.0,85,0.00,,---,0.00,VWS V14.00,2013-01-08 16:37:00,
2013-01-08 11:42:00,50.1,45.8,30.40,NE,39,1.0,3.0,85,0.00,,---,0.00,VWS V14.00,2013-01-08 16:42:00,
2013-01-08 11:47:00,50.9,46.9,30.40,East,87,2.0,5.0,86,0.00,,---,0.00,VWS V14.00,2013-01-08 16:47:00,
2013-01-08 11:52:00,52.1,47.7,30.39,ENE,60,2.0,5.0,85,0.00,,---,0.00,VWS V14.00,2013-01-08 16:52:00,
2013-01-08 11:57:00,53.3,48.3,30.39,ENE,68,5.0,7.0,83,0.00,,---,0.00,VWS V14.00,2013-01-08 16:57:00,
2013-01-08 12:02:00,54.4,49.0,30.39,ENE,58,3.0,8.0,82,0.00,,---,0.00,VWS V14.00,2013-01-08 17:02:00,
2013-01-08 12:07:00,55.6,49.5,30.39,ENE,78,4.0,9.0,80,0.00,,---,0.00,VWS V14.00,2013-01-08 17:07:00,
2013-01-08 12:12:00,56.6,49.8,30.38,East,81,7.0,10.0,78,0.00,,---,0.00,VWS V14.00,2013-01-08 17:12:00,
2013-01-08 12:17:00,57.6,50.5,30.38,ENE,61,9.0,10.0,77,0.00,,---,0.00,VWS V14.00,2013-01-08 17:17:00,
2013-01-08 12:22:00,58.7,50.8,30.38,East,86,4.0,10.0,75,0.00,,---,0.00,VWS V14.00,2013-01-08 17:22:00,
2013-01-08 12:27:00,59.1,50.5,30.38,East,89,3.0,10.0,73,0.00,,---,0.00,VWS V14.00,2013-01-08 17:27:00,
2013-01-08 12:32:00,59.3,50.3,30.37,NE,47,5.0,9.0,72,0.00,,---,0.00,VWS V14.00,2013-01-08 17:32:00,
2013-01-08 12:37:00,59.5,50.8,30.37,NE,46,5.0,9.0,73,0.00,,---,0.00,VWS V14.00,2013-01-08 17:37:00,
2013-01-08 12:42:00,59.8,51.1,30.37,East,91,8.0,9.0,73,0.00,,---,0.00,VWS V14.00,2013-01-08 17:42:00,
2013-01-08 12:47:00,60.2,50.8,30.37,ENE,58,8.0,9.0,71,0.00,,---,0.00,VWS V14.00,2013-01-08 17:47:00,
2013-01-08 12:52:00,60.5,51.1,30.37,ENE,75,8.0,11.0,71,0.00,,---,0.00,VWS V14.00,2013-01-08 17:52:00,
2013-01-08 12:57:00,61.5,51.6,30.37,East,88,3.0,11.0,70,0.00,,---,0.00,VWS V14.00,2013-01-08 17:57:00,
2013-01-08 13:02:00,62.4,51.7,30.36,East,100,11.0,12.0,68,0.00,,---,0.00,VWS V14.00,2013-01-08 18:02:00,
2013-01-08 13:07:00,63.1,52.0,30.36,NE,44,10.0,13.0,67,0.00,,---,0.00,VWS V14.00,2013-01-08 18:07:00,
2013-01-08 13:12:00,63.4,51.9,30.36,ESE,104,12.0,13.0,66,0.00,,---,0.00,VWS V14.00,2013-01-08 18:12:00,
2013-01-08 13:17:00,63.5,52.0,30.35,East,98,8.0,13.0,66,0.00,,---,0.00,VWS V14.00,2013-01-08 18:17:00,
2013-01-08 13:22:00,63.9,51.9,30.35,ENE,76,7.0,13.0,65,0.00,,---,0.00,VWS V14.00,2013-01-08 18:22:00,
2013-01-08 13:27:00,64.3,51.9,30.35,ESE,102,5.0,13.0,64,0.00,,---,0.00,VWS V14.00,2013-01-08 18:27:00,
2013-01-08 13:32:00,64.6,52.2,30.36,ESE,123,11.0,12.0,64,0.00,,---,0.00,VWS V14.00,2013-01-08 18:32:00,
2013-01-08 13:37:00,64.2,51.4,30.35,East,99,7.0,12.0,63,0.00,,---,0.00,VWS V14.00,2013-01-08 18:37:00,
2013-01-08 13:42:00,63.3,50.9,30.36,East,83,9.0,12.0,64,0.00,,---,0.00,VWS V14.00,2013-01-08 18:42:00,
2013-01-08 13:47:00,62.8,51.3,30.36,East,96,3.0,12.0,66,0.00,,---,0.00,VWS V14.00,2013-01-08 18:47:00,
2013-01-08 13:52:00,62.9,51.4,30.36,ENE,69,7.0,12.0,66,0.00,,---,0.00,VWS V14.00,2013-01-08 18:52:00,
2013-01-08 13:57:00,62.9,51.0,30.36,ESE,106,8.0,12.0,65,0.00,,---,0.00,VWS V14.00,2013-01-08 18:57:00,
2013-01-08 14:02:00,62.7,51.2,30.36,ESE,110,9.0,13.0,66,0.00,,---,0.00,VWS V14.00,2013-01-08 19:02:00,
2013-01-08 14:07:00,62.2,51.1,30.36,East,93,8.0,13.0,67,0.00,,---,0.00,VWS V14.00,2013-01-08 19:07:00,
2013-01-08 14:12:00,61.6,51.0,30.36,East,85,4.0,13.0,68,0.00,,---,0.00,VWS V14.00,2013-01-08 19:12:00,
2013-01-08 14:17:00,61.3,51.1,30.36,ENE,64,6.0,13.0,69,0.00,,---,0.00,VWS V14.00,2013-01-08 19:17:00,
2013-01-08 14:22:00,61.1,50.9,30.36,East,81,5.0,13.0,69,0.00,,---,0.00,VWS V14.00,2013-01-08 19:22:00,
2013-01-08 14:27:00,60.9,51.1,30.36,East,87,5.0,13.0,70,0.00,,---,0.00,VWS V14.00,2013-01-08 19:27:00,
2013-01-08 14:32:00,60.6,50.8,30.36,ENE,78,4.0,9.0,70,0.00,,---,0.00,VWS V14.00,2013-01-08 19:32:00,
2013-01-08 14:37:00,60.3,50.9,30.36,East,91,8.0,9.0,71,0.00,,---,0.00,VWS V14.00,2013-01-08 19:37:00,
2013-01-08 14:42:00,60.1,50.7,30.36,East,95,6.0,9.0,71,0.00,,---,0.00,VWS V14.00,2013-01-08 19:42:00,
2013-01-08 14:47:00,60.0,50.6,30.36,East,88,1.0,9.0,71,0.00,,---,0.00,VWS V14.00,2013-01-08 19:47:00,
2013-01-08 14:52:00,59.8,50.0,30.36,ENE,72,5.0,11.0,70,0.00,,---,0.00,VWS V14.00,2013-01-08 19:52:00,
2013-01-08 14:57:00,59.6,49.8,30.37,ENE,66,5.0,11.0,70,0.00,,---,0.00,VWS V14.00,2013-01-08 19:57:00,
2013-01-08 15:02:00,59.6,49.8,30.37,ENE,71,8.0,8.0,70,0.00,,---,0.00,VWS V14.00,2013-01-08 20:02:00,
2013-01-08 15:07:00,59.8,50.0,30.37,ENE,73,4.0,8.0,70,0.00,,---,0.00,VWS V14.00,2013-01-08 20:07:00,
2013-01-08 15:12:00,59.9,50.1,30.37,East,85,5.0,8.0,70,0.00,,---,0.00,VWS V14.00,2013-01-08 20:12:00,
2013-01-08 15:17:00,60.2,50.0,30.37,ENE,70,3.0,8.0,69,0.00,,---,0.00,VWS V14.00,2013-01-08 20:17:00,
2013-01-08 15:22:00,60.3,50.5,30.37,ENE,62,5.0,10.0,70,0.00,,---,0.00,VWS V14.00,2013-01-08 20:22:00,
2013-01-08 15:27:00,60.7,50.9,30.37,East,81,7.0,10.0,70,0.00,,---,0.00,VWS V14.00,2013-01-08 20:27:00,
2013-01-08 15:32:00,60.8,51.0,30.37,East,98,5.0,10.0,70,0.00,,---,0.00,VWS V14.00,2013-01-08 20:32:00,
2013-01-08 15:37:00,60.6,51.2,30.36,East,85,7.0,10.0,71,0.00,,---,0.00,VWS V14.00,2013-01-08 20:37:00,
2013-01-08 15:42:00,60.1,50.7,30.36,ENE,60,9.0,10.0,71,0.00,,---,0.00,VWS V14.00,2013-01-08 20:42:00,
2013-01-08 15:47:00,59.5,50.8,30.36,ENE,70,6.0,10.0,73,0.00,,---,0.00,VWS V14.00,2013-01-08 20:47:00,
2013-01-08 15:52:00,59.3,51.0,30.36,NE,55,5.0,10.0,74,0.00,,---,0.00,VWS V14.00,2013-01-08 20:52:00,
2013-01-08 15:57:00,59.4,51.1,30.36,East,91,3.0,10.0,74,0.00,,---,0.00,VWS V14.00,2013-01-08 20:57:00,
2013-01-08 16:02:00,59.7,51.0,30.36,East,88,7.0,9.0,73,0.00,,---,0.00,VWS V14.00,2013-01-08 21:02:00,
2013-01-08 16:07:00,59.8,51.1,30.37,East,90,4.0,9.0,73,0.00,,---,0.00,VWS V14.00,2013-01-08 21:07:00,
2013-01-08 16:12:00,59.7,51.0,30.37,East,91,3.0,9.0,73,0.00,,---,0.00,VWS V14.00,2013-01-08 21:12:00,
2013-01-08 16:17:00,59.7,51.4,30.37,ENE,68,7.0,9.0,74,0.00,,---,0.00,VWS V14.00,2013-01-08 21:17:00,
2013-01-08 16:22:00,59.6,51.3,30.37,East,85,7.0,9.0,74,0.00,,---,0.00,VWS V14.00,2013-01-08 21:22:00,
2013-01-08 16:27:00,59.2,50.9,30.37,ENE,67,7.0,9.0,74,0.00,,---,0.00,VWS V14.00,2013-01-08 21:27:00,
2013-01-08 16:32:00,58.7,50.8,30.37,East,96,5.0,8.0,75,0.00,,---,0.00,VWS V14.00,2013-01-08 21:32:00,
2013-01-08 16:37:00,58.4,50.9,30.37,ENE,75,5.0,8.0,76,0.00,,---,0.00,VWS V14.00,2013-01-08 21:37:00,
2013-01-08 16:42:00,58.0,50.8,30.37,East,87,4.0,8.0,77,0.00,,---,0.00,VWS V14.00,2013-01-08 21:42:00,
2013-01-08 16:47:00,57.7,50.9,30.37,East,79,2.0,8.0,78,0.00,,---,0.00,VWS V14.00,2013-01-08 21:47:00,
2013-01-08 16:52:00,57.5,50.7,30.37,ENE,64,3.0,8.0,78,0.00,,---,0.00,VWS V14.00,2013-01-08 21:52:00,
2013-01-08 16:57:00,57.3,50.8,30.37,ENE,67,5.0,8.0,79,0.00,,---,0.00,VWS V14.00,2013-01-08 21:57:00,
2013-01-08 17:02:00,57.1,51.0,30.37,East,83,2.0,5.0,80,0.00,,---,0.00,VWS V14.00,2013-01-08 22:02:00,
2013-01-08 17:07:00,56.9,50.8,30.37,ENE,66,2.0,5.0,80,0.00,,---,0.00,VWS V14.00,2013-01-08 22:07:00,
2013-01-08 17:12:00,56.6,50.5,30.37,East,79,3.0,5.0,80,0.00,,---,0.00,VWS V14.00,2013-01-08 22:12:00,
2013-01-08 17:17:00,56.3,50.5,30.37,ENE,70,2.0,5.0,81,0.00,,---,0.00,VWS V14.00,2013-01-08 22:17:00,
2013-01-08 17:22:00,56.0,50.3,30.36,ENE,76,4.0,5.0,81,0.00,,---,0.00,VWS V14.00,2013-01-08 22:22:00,
2013-01-08 17:27:00,55.8,50.4,30.36,ENE,71,2.0,5.0,82,0.00,,---,0.00,VWS V14.00,2013-01-08 22:27:00,
2013-01-08 17:32:00,55.5,50.1,30.37,ENE,66,2.0,4.0,82,0.00,,---,0.00,VWS V14.00,2013-01-08 22:32:00,
2013-01-08 17:37:00,55.3,50.2,30.37,ENE,77,3.0,5.0,83,0.00,,---,0.00,VWS V14.00,2013-01-08 22:37:00,
2013-01-08 17:42:00,55.1,50.0,30.37,ENE,66,3.0,5.0,83,0.00,,---,0.00,VWS V14.00,2013-01-08 22:42:00,
2013-01-08 17:47:00,55.0,49.9,30.37,ENE,73,2.0,6.0,83,0.00,,---,0.00,VWS V14.00,2013-01-08 22:47:00,
2013-01-08 17:52:00,54.6,49.2,30.37,East,89,3.0,6.0,82,0.00,,---,0.00,VWS V14.00,2013-01-08 22:52:00,
2013-01-08 17:57:00,54.3,48.9,30.37,East,83,5.0,6.0,82,0.00,,---,0.00,VWS V14.00,2013-01-08 22:57:00,
2013-01-08 18:02:00,54.1,49.1,30.38,East,87,4.0,7.0,83,0.00,,---,0.00,VWS V14.00,2013-01-08 23:02:00,
2013-01-08 18:07:00,53.9,48.9,30.38,East,89,3.0,7.0,83,0.00,,---,0.00,VWS V14.00,2013-01-08 23:07:00,
2013-01-08 18:12:00,53.9,48.9,30.38,ENE,58,6.0,7.0,83,0.00,,---,0.00,VWS V14.00,2013-01-08 23:12:00,
2013-01-08 18:17:00,54.1,49.1,30.39,ENE,66,2.0,7.0,83,0.00,,---,0.00,VWS V14.00,2013-01-08 23:17:00,
2013-01-08 18:22:00,54.1,49.1,30.39,ENE,73,1.0,7.0,83,0.00,,---,0.00,VWS V14.00,2013-01-08 23:22:00,
2013-01-08 18:27:00,54.1,49.1,30.39,NE,56,0.0,7.0,83,0.00,,---,0.00,VWS V14.00,2013-01-08 23:27:00,
2013-01-08 18:32:00,54.2,49.2,30.39,NE,56,3.0,3.0,83,0.00,,---,0.00,VWS V14.00,2013-01-08 23:32:00,
2013-01-08 18:37:00,54.3,49.3,30.39,NE,50,1.0,3.0,83,0.00,,---,0.00,VWS V14.00,2013-01-08 23:37:00,
2013-01-08 18:42:00,54.3,48.9,30.39,NE,50,1.0,3.0,82,0.00,,---,0.00,VWS V14.00,2013-01-08 23:42:00,
2013-01-08 18:47:00,54.1,48.7,30.38,NE,50,2.0,3.0,82,0.00,,---,0.00,VWS V14.00,2013-01-08 23:47:00,
2013-01-08 18:52:00,53.8,48.8,30.38,NE,50,1.0,3.0,83,0.00,,---,0.00,VWS V14.00,2013-01-08 23:52:00,
2013-01-08 18:57:00,53.7,49.0,30.38,ENE,68,2.0,3.0,84,0.00,,---,0.00,VWS V14.00,2013-01-08 23:57:00,
2013-01-08 19:02:00,53.7,49.0,30.39,ENE,68,0.0,3.0,84,0.00,,---,0.00,VWS V14.00,2013-01-09 00:02:00,
2013-01-08 19:07:00,53.5,48.5,30.39,ENE,66,0.0,3.0,83,0.00,,---,0.00,VWS V14.00,2013-01-09 00:07:00,
2013-01-08 19:12:00,53.2,48.2,30.39,ENE,66,0.0,3.0,83,0.00,,---,0.00,VWS V14.00,2013-01-09 00:12:00,
2013-01-08 19:17:00,52.7,48.0,30.39,ENE,66,1.0,3.0,84,0.00,,---,0.00,VWS V14.00,2013-01-09 00:17:00,
2013-01-08 19:22:00,52.3,47.6,30.39,ENE,60,1.0,3.0,84,0.00,,---,0.00,VWS V14.00,2013-01-09 00:22:00,
2013-01-08 19:27:00,51.9,47.5,30.39,ENE,60,0.0,3.0,85,0.00,,---,0.00,VWS V14.00,2013-01-09 00:27:00,
2013-01-08 19:32:00,51.6,47.6,30.39,ENE,60,0.0,1.0,86,0.00,,---,0.00,VWS V14.00,2013-01-09 00:32:00,
2013-01-08 19:37:00,51.2,47.2,30.39,ENE,60,0.0,1.0,86,0.00,,---,0.00,VWS V14.00,2013-01-09 00:37:00,
2013-01-08 19:42:00,50.7,47.0,30.39,ENE,60,0.0,1.0,87,0.00,,---,0.00,VWS V14.00,2013-01-09 00:42:00,
2013-01-08 19:47:00,50.3,46.6,30.39,ENE,60,0.0,1.0,87,0.00,,---,0.00,VWS V14.00,2013-01-09 00:47:00,
2013-01-08 19:52:00,50.2,46.8,30.39,ENE,60,1.0,1.0,88,0.00,,---,0.00,VWS V14.00,2013-01-09 00:52:00,
2013-01-08 19:57:00,50.1,47.0,30.40,ENE,60,1.0,2.0,89,0.00,,---,0.00,VWS V14.00,2013-01-09 00:57:00,
2013-01-08 20:02:00,49.8,46.4,30.40,ENE,60,1.0,2.0,88,0.00,,---,0.00,VWS V14.00,2013-01-09 01:02:00,
2013-01-08 20:07:00,49.4,46.3,30.39,ENE,60,2.0,2.0,89,0.00,,---,0.00,VWS V14.00,2013-01-09 01:07:00,
2013-01-08 20:12:00,49.1,46.0,30.39,ENE,60,0.0,2.0,89,0.00,,---,0.00,VWS V14.00,2013-01-09 01:12:00,
2013-01-08 20:17:00,48.8,45.7,30.39,ENE,60,0.0,2.0,89,0.00,,---,0.00,VWS V14.00,2013-01-09 01:17:00,
2013-01-08 20:22:00,48.5,45.4,30.39,ENE,60,0.0,2.0,89,0.00,,---,0.00,VWS V14.00,2013-01-09 01:22:00,
2013-01-08 20:27:00,48.3,45.5,30.40,ENE,60,0.0,2.0,90,0.00,,---,0.00,VWS V14.00,2013-01-09 01:27:00,
2013-01-08 20:32:00,48.1,45.3,30.39,ENE,60,0.0,0.0,90,0.00,,---,0.00,VWS V14.00,2013-01-09 01:32:00,
2013-01-08 20:37:00,47.9,45.1,30.39,ENE,60,0.0,0.0,90,0.00,,---,0.00,VWS V14.00,2013-01-09 01:37:00,
2013-01-08 20:42:00,47.7,44.9,30.39,ENE,60,0.0,0.0,90,0.00,,---,0.00,VWS V14.00,2013-01-09 01:42:00,
2013-01-08 20:47:00,47.4,44.6,30.39,ENE,60,0.0,1.0,90,0.00,,---,0.00,VWS V14.00,2013-01-09 01:47:00,
2013-01-08 20:52:00,47.3,44.8,30.39,ENE,60,0.0,1.0,91,0.00,,---,0.00,VWS V14.00,2013-01-09 01:52:00,
2013-01-08 20:57:00,47.2,44.7,30.39,ENE,60,0.0,1.0,91,0.00,,---,0.00,VWS V14.00,2013-01-09 01:57:00,
2013-01-08 21:02:00,47.1,44.6,30.39,ENE,60,0.0,0.0,91,0.00,,---,0.00,VWS V14.00,2013-01-09 02:02:00,
2013-01-08 21:07:00,46.9,44.4,30.39,ENE,60,0.0,0.0,91,0.00,,---,0.00,VWS V14.00,2013-01-09 02:07:00,
2013-01-08 21:12:00,46.6,44.1,30.38,ENE,60,0.0,0.0,91,0.00,,---,0.00,VWS V14.00,2013-01-09 02:12:00,
2013-01-08 21:17:00,46.4,43.9,30.38,ENE,60,0.0,0.0,91,0.00,,---,0.00,VWS V14.00,2013-01-09 02:17:00,
2013-01-08 21:22:00,46.2,43.7,30.38,ENE,60,0.0,0.0,91,0.00,,---,0.00,VWS V14.00,2013-01-09 02:22:00,
2013-01-08 21:27:00,46.1,43.6,30.39,ENE,60,0.0,0.0,91,0.00,,---,0.00,VWS V14.00,2013-01-09 02:27:00,
2013-01-08 21:32:00,45.9,43.7,30.39,ENE,60,0.0,0.0,92,0.00,,---,0.00,VWS V14.00,2013-01-09 02:32:00,
2013-01-08 21:37:00,45.8,43.6,30.39,ENE,60,0.0,0.0,92,0.00,,---,0.00,VWS V14.00,2013-01-09 02:37:00,
2013-01-08 21:42:00,45.8,43.6,30.38,ENE,60,0.0,0.0,92,0.00,,---,0.00,VWS V14.00,2013-01-09 02:42:00,
2013-01-08 21:47:00,45.8,43.9,30.39,ENE,60,0.0,0.0,93,0.00,,---,0.00,VWS V14.00,2013-01-09 02:47:00,
2013-01-08 21:52:00,45.6,43.4,30.39,ENE,60,0.0,0.0,92,0.00,,---,0.00,VWS V14.00,2013-01-09 02:52:00,
2013-01-08 21:57:00,45.5,43.3,30.39,ENE,60,0.0,0.0,92,0.00,,---,0.00,VWS V14.00,2013-01-09 02:57:00,
2013-01-08 22:02:00,45.3,43.1,30.39,ENE,60,0.0,0.0,92,0.00,,---,0.00,VWS V14.00,2013-01-09 03:02:00,
2013-01-08 22:07:00,45.2,43.0,30.39,ENE,60,0.0,0.0,92,0.00,,---,0.00,VWS V14.00,2013-01-09 03:07:00,
2013-01-08 22:12:00,45.0,42.8,30.39,ENE,60,0.0,0.0,92,0.00,,---,0.00,VWS V14.00,2013-01-09 03:12:00,
2013-01-08 22:17:00,44.9,42.7,30.38,ENE,60,0.0,0.0,92,0.00,,---,0.00,VWS V14.00,2013-01-09 03:17:00,
2013-01-08 22:22:00,44.8,42.6,30.38,ENE,60,0.0,0.0,92,0.00,,---,0.00,VWS V14.00,2013-01-09 03:22:00,
2013-01-08 22:27:00,44.6,42.4,30.38,ENE,60,0.0,0.0,92,0.00,,---,0.00,VWS V14.00,2013-01-09 03:27:00,
2013-01-08 22:32:00,44.5,42.3,30.38,ENE,60,0.0,0.0,92,0.00,,---,0.00,VWS V14.00,2013-01-09 03:32:00,
2013-01-08 22:37:00,44.5,42.6,30.38,ENE,60,0.0,0.0,93,0.00,,---,0.00,VWS V14.00,2013-01-09 03:37:00,
2013-01-08 22:42:00,44.8,43.2,30.38,ENE,60,0.0,0.0,94,0.00,,---,0.00,VWS V14.00,2013-01-09 03:42:00,
2013-01-08 22:47:00,45.7,44.3,30.38,ENE,60,0.0,0.0,95,0.00,,---,0.00,VWS V14.00,2013-01-09 03:47:00,
2013-01-08 22:52:00,45.8,44.2,30.38,ENE,60,0.0,0.0,94,0.00,,---,0.00,VWS V14.00,2013-01-09 03:52:00,
2013-01-08 22:57:00,45.8,44.2,30.38,ENE,60,0.0,0.0,94,0.00,,---,0.00,VWS V14.00,2013-01-09 03:57:00,
2013-01-08 23:02:00,45.6,43.7,30.39,ENE,60,1.0,1.0,93,0.00,,---,0.00,VWS V14.00,2013-01-09 04:02:00,
2013-01-08 23:07:00,45.2,43.3,30.39,ENE,60,1.0,1.0,93,0.00,,---,0.00,VWS V14.00,2013-01-09 04:07:00,
2013-01-08 23:12:00,45.1,43.2,30.39,ENE,60,0.0,1.0,93,0.00,,---,0.00,VWS V14.00,2013-01-09 04:12:00,
2013-01-08 23:17:00,45.1,43.5,30.39,ENE,60,1.0,2.0,94,0.00,,---,0.00,VWS V14.00,2013-01-09 04:17:00,
2013-01-08 23:22:00,45.1,43.5,30.39,ENE,60,0.0,2.0,94,0.00,,---,0.00,VWS V14.00,2013-01-09 04:22:00,
2013-01-08 23:27:00,44.8,42.9,30.39,ENE,60,1.0,2.0,93,0.00,,---,0.00,VWS V14.00,2013-01-09 04:27:00,
2013-01-08 23:32:00,44.4,42.5,30.38,ENE,60,2.0,2.0,93,0.00,,---,0.00,VWS V14.00,2013-01-09 04:32:00,
2013-01-08 23:37:00,44.0,42.1,30.38,NE,52,0.0,2.0,93,0.00,,---,0.00,VWS V14.00,2013-01-09 04:37:00,
2013-01-08 23:42:00,44.1,42.5,30.38,NE,52,2.0,3.0,94,0.00,,---,0.00,VWS V14.00,2013-01-09 04:42:00,
2013-01-08 23:47:00,44.4,42.8,30.38,NE,50,1.0,3.0,94,0.00,,---,0.00,VWS V14.00,2013-01-09 04:47:00,
2013-01-08 23:53:00,44.5,42.9,30.38,NE,43,1.0,3.0,94,0.00,,---,0.00,VWS V14.00,2013-01-09 04:53:00,
2013-01-08 23:58:00,44.5,42.9,30.38,NE,43,1.0,3.0,94,0.00,,---,0.00,VWS V14.00,2013-01-09 04:58:00,